BRU619 RJOM-RJTT
Flight info
| Callsign | BRU619 |
|---|---|
| Flight time | 1h 42m |
| Altitude | 39000 |
| Route | SAKAR KRE V37 PADOC Y43 MENUR Y21 AKSEL |
| Aircraft | A20N/M-SDE2E3FGHIRWXY/LB1 |
Departure
| Time | 2026-04-20 06:14 |
|---|---|
| Airport | Matsuyama Airport (RJOM) |
Arrival
| Time | 2026-04-20 07:56 |
|---|---|
| Airport | Tokyo Haneda International Airport (RJTT) |
| Time | Latitude | Longitude | Altitude | Speed | Heading |
|---|---|---|---|---|---|
| 2026-04-20 05:46 | 33.82879 | 132.70314 | 25 ft | 0 kts | 41° |
| 2026-04-20 06:07 | 33.82869 | 132.70304 | 25 ft | 2 kts | 41° |
| 2026-04-20 06:07 | 33.82858 | 132.70293 | 28 ft | 2 kts | 41° |
| 2026-04-20 06:07 | 33.82848 | 132.70282 | 29 ft | 2 kts | 41° |
| 2026-04-20 06:08 | 33.82837 | 132.70271 | 26 ft | 2 kts | 41° |
| 2026-04-20 06:08 | 33.82826 | 132.70260 | 28 ft | 2 kts | 41° |
| 2026-04-20 06:08 | 33.82816 | 132.70248 | 29 ft | 2 kts | 41° |
| 2026-04-20 06:08 | 33.82805 | 132.70238 | 28 ft | 2 kts | 33° |
| 2026-04-20 06:09 | 33.82792 | 132.70230 | 27 ft | 2 kts | 18° |
| 2026-04-20 06:09 | 33.82780 | 132.70222 | 26 ft | 2 kts | 55° |
| 2026-04-20 06:09 | 33.82774 | 132.70207 | 27 ft | 2 kts | 98° |
| 2026-04-20 06:09 | 33.82775 | 132.70199 | 28 ft | 0 kts | 131° |
| 2026-04-20 06:10 | 33.82768 | 132.70208 | 27 ft | 4 kts | 131° |
| 2026-04-20 06:11 | 33.82742 | 132.70243 | 27 ft | 8 kts | 130° |
| 2026-04-20 06:11 | 33.82699 | 132.70305 | 25 ft | 11 kts | 129° |
| 2026-04-20 06:11 | 33.82640 | 132.70389 | 27 ft | 15 kts | 132° |
| 2026-04-20 06:11 | 33.82565 | 132.70494 | 27 ft | 18 kts | 130° |
| 2026-04-20 06:12 | 33.82476 | 132.70618 | 27 ft | 21 kts | 130° |
| 2026-04-20 06:12 | 33.82374 | 132.70760 | 26 ft | 24 kts | 129° |
| 2026-04-20 06:12 | 33.82259 | 132.70920 | 27 ft | 27 kts | 130° |
| 2026-04-20 06:12 | 33.82132 | 132.71015 | 24 ft | 19 kts | 171° |
| 2026-04-20 06:13 | 33.82103 | 132.71011 | 27 ft | 1 kts | 194° |
| 2026-04-20 06:13 | 33.82077 | 132.71003 | 27 ft | 6 kts | 196° |
| 2026-04-20 06:13 | 33.82033 | 132.70952 | 24 ft | 12 kts | 255° |
| 2026-04-20 06:13 | 33.82075 | 132.70872 | 24 ft | 18 kts | 308° |
| 2026-04-20 06:14 | 33.82315 | 132.70534 | 25 ft | 88 kts | 310° |
| 2026-04-20 06:14 | 33.82846 | 132.69788 | 29 ft | 143 kts | 309° |
| 2026-04-20 06:14 | 33.83377 | 132.68751 | 527 ft | 147 kts | 280° |
| 2026-04-20 06:14 | 33.83207 | 132.67597 | 1207 ft | 141 kts | 233° |
| 2026-04-20 06:15 | 33.82430 | 132.66955 | 1766 ft | 140 kts | 192° |
| 2026-04-20 06:15 | 33.81421 | 132.66981 | 2160 ft | 153 kts | 170° |
| 2026-04-20 06:15 | 33.80313 | 132.67190 | 2597 ft | 171 kts | 171° |
| 2026-04-20 06:15 | 33.79082 | 132.67417 | 3069 ft | 191 kts | 171° |
| 2026-04-20 06:16 | 33.77683 | 132.67667 | 3550 ft | 216 kts | 171° |
| 2026-04-20 06:16 | 33.76112 | 132.67940 | 4165 ft | 239 kts | 171° |
| 2026-04-20 06:16 | 33.74398 | 132.68231 | 4905 ft | 257 kts | 171° |
| 2026-04-20 06:16 | 33.72613 | 132.68539 | 5898 ft | 261 kts | 172° |
| 2026-04-20 06:17 | 33.70802 | 132.68864 | 6928 ft | 265 kts | 172° |
| 2026-04-20 06:17 | 33.68951 | 132.69202 | 7850 ft | 273 kts | 171° |
| 2026-04-20 06:17 | 33.67124 | 132.69892 | 8851 ft | 279 kts | 157° |
| 2026-04-20 06:17 | 33.65448 | 132.71147 | 9795 ft | 290 kts | 145° |
| 2026-04-20 06:18 | 33.63819 | 132.72663 | 10497 ft | 306 kts | 144° |
| 2026-04-20 06:18 | 33.62064 | 132.74285 | 10842 ft | 331 kts | 144° |
| 2026-04-20 06:18 | 33.60174 | 132.76019 | 11271 ft | 350 kts | 144° |
| 2026-04-20 06:18 | 33.58417 | 132.78082 | 12042 ft | 361 kts | 127° |
| 2026-04-20 06:19 | 33.57329 | 132.80820 | 12846 ft | 370 kts | 105° |
| 2026-04-20 06:19 | 33.56982 | 132.83903 | 13594 ft | 378 kts | 92° |
| 2026-04-20 06:19 | 33.56911 | 132.87082 | 14301 ft | 384 kts | 90° |
| 2026-04-20 06:19 | 33.56888 | 132.90306 | 15006 ft | 390 kts | 89° |
| 2026-04-20 06:20 | 33.56844 | 132.93593 | 15472 ft | 397 kts | 90° |
| 2026-04-20 06:20 | 33.56769 | 132.96851 | 15571 ft | 395 kts | 90° |
| 2026-04-20 06:20 | 33.56670 | 133.00156 | 15678 ft | 398 kts | 91° |
| 2026-04-20 06:20 | 33.56560 | 133.03466 | 15798 ft | 397 kts | 91° |
| 2026-04-20 06:21 | 33.56444 | 133.06775 | 15898 ft | 397 kts | 91° |
| 2026-04-20 06:21 | 33.56328 | 133.10089 | 15948 ft | 398 kts | 91° |
| 2026-04-20 06:21 | 33.56211 | 133.13398 | 15954 ft | 397 kts | 91° |
| 2026-04-20 06:21 | 33.56095 | 133.16712 | 15956 ft | 399 kts | 91° |
| 2026-04-20 06:22 | 33.55978 | 133.20034 | 15960 ft | 398 kts | 91° |
| 2026-04-20 06:22 | 33.55860 | 133.23341 | 15961 ft | 397 kts | 91° |
| 2026-04-20 06:22 | 33.55740 | 133.26649 | 15956 ft | 397 kts | 91° |
| 2026-04-20 06:22 | 33.55621 | 133.29957 | 15955 ft | 397 kts | 91° |
| 2026-04-20 06:23 | 33.55500 | 133.33259 | 15954 ft | 395 kts | 91° |
| 2026-04-20 06:23 | 33.55378 | 133.36567 | 15951 ft | 399 kts | 91° |
| 2026-04-20 06:23 | 33.55254 | 133.39895 | 16035 ft | 401 kts | 91° |
| 2026-04-20 06:23 | 33.55129 | 133.43242 | 16641 ft | 405 kts | 90° |
| 2026-04-20 06:24 | 33.55001 | 133.46622 | 17413 ft | 408 kts | 90° |
| 2026-04-20 06:24 | 33.54871 | 133.50043 | 18072 ft | 414 kts | 90° |
| 2026-04-20 06:24 | 33.54740 | 133.53474 | 18661 ft | 419 kts | 89° |
| 2026-04-20 06:24 | 33.54605 | 133.56972 | 19318 ft | 422 kts | 90° |
| 2026-04-20 06:25 | 33.54469 | 133.60509 | 19927 ft | 427 kts | 90° |
| 2026-04-20 06:25 | 33.54330 | 133.64081 | 20540 ft | 430 kts | 90° |
| 2026-04-20 06:25 | 33.54189 | 133.67672 | 21196 ft | 433 kts | 90° |
| 2026-04-20 06:25 | 33.54042 | 133.71293 | 21780 ft | 438 kts | 91° |
| 2026-04-20 06:26 | 33.53938 | 133.73714 | 22175 ft | 440 kts | 91° |
| 2026-04-20 06:26 | 33.53777 | 133.77393 | 22787 ft | 444 kts | 91° |
| 2026-04-20 06:26 | 33.53613 | 133.81107 | 23402 ft | 448 kts | 91° |
| 2026-04-20 06:26 | 33.53448 | 133.84853 | 23947 ft | 451 kts | 91° |
| 2026-04-20 06:27 | 33.53281 | 133.88618 | 24471 ft | 454 kts | 91° |
| 2026-04-20 06:27 | 33.53112 | 133.92417 | 24963 ft | 459 kts | 91° |
| 2026-04-20 06:27 | 33.52941 | 133.96248 | 25452 ft | 462 kts | 90° |
| 2026-04-20 06:27 | 33.52767 | 134.00109 | 25917 ft | 466 kts | 90° |
| 2026-04-20 06:28 | 33.52590 | 134.04013 | 26336 ft | 470 kts | 90° |
| 2026-04-20 06:28 | 33.52413 | 134.07923 | 26911 ft | 471 kts | 90° |
| 2026-04-20 06:28 | 33.52231 | 134.11860 | 27313 ft | 475 kts | 90° |
| 2026-04-20 06:28 | 33.52047 | 134.15825 | 27731 ft | 478 kts | 89° |
| 2026-04-20 06:29 | 33.51858 | 134.19822 | 28118 ft | 482 kts | 89° |
| 2026-04-20 06:29 | 33.51670 | 134.23845 | 28550 ft | 484 kts | 89° |
| 2026-04-20 06:29 | 33.51480 | 134.27870 | 28997 ft | 486 kts | 89° |
| 2026-04-20 06:29 | 33.51291 | 134.31928 | 29332 ft | 489 kts | 89° |
| 2026-04-20 06:30 | 33.51100 | 134.36009 | 29695 ft | 492 kts | 89° |
| 2026-04-20 06:30 | 33.50908 | 134.40119 | 30058 ft | 495 kts | 89° |
| 2026-04-20 06:30 | 33.50730 | 134.44197 | 30374 ft | 498 kts | 88° |
| 2026-04-20 06:30 | 33.50553 | 134.48345 | 30763 ft | 499 kts | 88° |
| 2026-04-20 06:31 | 33.50374 | 134.52501 | 31097 ft | 501 kts | 88° |
| 2026-04-20 06:31 | 33.50192 | 134.56677 | 31483 ft | 502 kts | 88° |
| 2026-04-20 06:31 | 33.50007 | 134.60847 | 31933 ft | 501 kts | 88° |
| 2026-04-20 06:31 | 33.49824 | 134.64999 | 32482 ft | 497 kts | 88° |
| 2026-04-20 06:32 | 33.49645 | 134.69126 | 32962 ft | 495 kts | 88° |
| 2026-04-20 06:32 | 33.49467 | 134.73238 | 33379 ft | 495 kts | 87° |
| 2026-04-20 06:32 | 33.49288 | 134.77351 | 33798 ft | 494 kts | 87° |
| 2026-04-20 06:32 | 33.49107 | 134.81452 | 34161 ft | 493 kts | 88° |
| 2026-04-20 06:33 | 33.48925 | 134.85554 | 34474 ft | 493 kts | 88° |
| 2026-04-20 06:33 | 33.48741 | 134.89661 | 34741 ft | 494 kts | 88° |
| 2026-04-20 06:33 | 33.48556 | 134.93771 | 35026 ft | 494 kts | 88° |
| 2026-04-20 06:33 | 33.48369 | 134.97881 | 35341 ft | 494 kts | 89° |
| 2026-04-20 06:34 | 33.48181 | 135.01986 | 35672 ft | 493 kts | 89° |
| 2026-04-20 06:34 | 33.47999 | 135.06086 | 35948 ft | 493 kts | 89° |
| 2026-04-20 06:34 | 33.47639 | 135.14238 | 36417 ft | 494 kts | 89° |
| 2026-04-20 06:35 | 33.47455 | 135.18355 | 36669 ft | 495 kts | 90° |
| 2026-04-20 06:35 | 33.47268 | 135.22475 | 36942 ft | 496 kts | 90° |
| 2026-04-20 06:35 | 33.47079 | 135.26600 | 37180 ft | 496 kts | 90° |
| 2026-04-20 06:35 | 33.46889 | 135.30726 | 37406 ft | 496 kts | 90° |
| 2026-04-20 06:36 | 33.46698 | 135.34847 | 37627 ft | 497 kts | 90° |
| 2026-04-20 06:36 | 33.46523 | 135.38979 | 37861 ft | 497 kts | 90° |
| 2026-04-20 06:36 | 33.46354 | 135.43114 | 38064 ft | 497 kts | 90° |
| 2026-04-20 06:36 | 33.46184 | 135.47252 | 38277 ft | 498 kts | 91° |
| 2026-04-20 06:37 | 33.46011 | 135.51393 | 38454 ft | 499 kts | 91° |
| 2026-04-20 06:37 | 33.45835 | 135.55553 | 38586 ft | 500 kts | 91° |
| 2026-04-20 06:37 | 33.45656 | 135.59710 | 38763 ft | 500 kts | 91° |
| 2026-04-20 06:37 | 33.45475 | 135.63868 | 38908 ft | 500 kts | 91° |
| 2026-04-20 06:38 | 33.45293 | 135.68024 | 38964 ft | 499 kts | 91° |
| 2026-04-20 06:38 | 33.45023 | 135.76320 | 38971 ft | 498 kts | 86° |
| 2026-04-20 06:39 | 33.45783 | 135.84477 | 38971 ft | 496 kts | 75° |
| 2026-04-20 06:39 | 33.47365 | 135.92516 | 38980 ft | 496 kts | 73° |
| 2026-04-20 06:40 | 33.48941 | 136.00550 | 38964 ft | 498 kts | 74° |
| 2026-04-20 06:40 | 33.50523 | 136.08656 | 38979 ft | 500 kts | 74° |
| 2026-04-20 06:41 | 33.52095 | 136.16740 | 38981 ft | 498 kts | 74° |
| 2026-04-20 06:41 | 33.53666 | 136.24834 | 38979 ft | 499 kts | 74° |
| 2026-04-20 06:42 | 33.55232 | 136.32941 | 38979 ft | 499 kts | 74° |
| 2026-04-20 06:42 | 33.56792 | 136.41040 | 38980 ft | 498 kts | 75° |
| 2026-04-20 06:43 | 33.58342 | 136.49124 | 38975 ft | 497 kts | 75° |
| 2026-04-20 06:43 | 33.59882 | 136.57187 | 38978 ft | 496 kts | 75° |
| 2026-04-20 06:44 | 33.61414 | 136.65234 | 38970 ft | 494 kts | 75° |
| 2026-04-20 06:44 | 33.62928 | 136.73219 | 38964 ft | 494 kts | 75° |
| 2026-04-20 06:45 | 33.64452 | 136.81274 | 38989 ft | 498 kts | 76° |
| 2026-04-20 06:45 | 33.65976 | 136.89380 | 38988 ft | 497 kts | 76° |
| 2026-04-20 06:46 | 33.67492 | 136.97471 | 38986 ft | 497 kts | 76° |
| 2026-04-20 06:46 | 33.69008 | 137.05589 | 38988 ft | 498 kts | 76° |
| 2026-04-20 06:47 | 33.70517 | 137.13706 | 38985 ft | 498 kts | 76° |
| 2026-04-20 06:47 | 33.72022 | 137.21826 | 38986 ft | 498 kts | 76° |
| 2026-04-20 06:48 | 33.73520 | 137.29940 | 38986 ft | 498 kts | 76° |
| 2026-04-20 06:48 | 33.75013 | 137.38060 | 38985 ft | 498 kts | 76° |
| 2026-04-20 06:49 | 33.76501 | 137.46180 | 38981 ft | 498 kts | 76° |
| 2026-04-20 06:49 | 33.77984 | 137.54312 | 38982 ft | 498 kts | 76° |
| 2026-04-20 06:50 | 33.79464 | 137.62446 | 38972 ft | 498 kts | 77° |
| 2026-04-20 06:50 | 33.80937 | 137.70589 | 38978 ft | 499 kts | 77° |
| 2026-04-20 06:51 | 33.82398 | 137.78694 | 38984 ft | 499 kts | 77° |
| 2026-04-20 06:51 | 33.83865 | 137.86858 | 38987 ft | 500 kts | 77° |
| 2026-04-20 06:52 | 33.85328 | 137.95045 | 38988 ft | 501 kts | 77° |
| 2026-04-20 06:52 | 33.86789 | 138.03242 | 38997 ft | 502 kts | 78° |
| 2026-04-20 06:53 | 33.88247 | 138.11462 | 38998 ft | 503 kts | 78° |
| 2026-04-20 06:53 | 33.89701 | 138.19693 | 39006 ft | 503 kts | 78° |
| 2026-04-20 06:54 | 33.91538 | 138.27823 | 39006 ft | 504 kts | 69° |
| 2026-04-20 06:54 | 33.94513 | 138.35446 | 39011 ft | 503 kts | 60° |
| 2026-04-20 06:55 | 33.97810 | 138.42833 | 39017 ft | 504 kts | 60° |
| 2026-04-20 06:55 | 34.01115 | 138.50290 | 39019 ft | 505 kts | 60° |
| 2026-04-20 06:56 | 34.04426 | 138.57768 | 39024 ft | 506 kts | 60° |
| 2026-04-20 06:56 | 34.07735 | 138.65253 | 39030 ft | 506 kts | 60° |
| 2026-04-20 06:57 | 34.11048 | 138.72760 | 39012 ft | 507 kts | 61° |
| 2026-04-20 06:57 | 34.14346 | 138.80252 | 38999 ft | 504 kts | 61° |
| 2026-04-20 06:58 | 34.17645 | 138.87761 | 39025 ft | 509 kts | 61° |
| 2026-04-20 06:58 | 34.20961 | 138.95326 | 39026 ft | 509 kts | 61° |
| 2026-04-20 06:59 | 34.24271 | 139.02892 | 39023 ft | 509 kts | 61° |
| 2026-04-20 06:59 | 34.27554 | 139.10413 | 38928 ft | 510 kts | 62° |
| 2026-04-20 06:59 | 34.29087 | 139.14286 | 38710 ft | 511 kts | 68° |
| 2026-04-20 07:00 | 34.30443 | 139.18248 | 38445 ft | 509 kts | 67° |
| 2026-04-20 07:00 | 34.31802 | 139.22191 | 38169 ft | 507 kts | 67° |
| 2026-04-20 07:00 | 34.33161 | 139.26122 | 37899 ft | 506 kts | 67° |
| 2026-04-20 07:00 | 34.34513 | 139.30041 | 37631 ft | 505 kts | 67° |
| 2026-04-20 07:01 | 34.35865 | 139.33967 | 37110 ft | 505 kts | 66° |
| 2026-04-20 07:01 | 34.37208 | 139.37873 | 36697 ft | 500 kts | 66° |
| 2026-04-20 07:01 | 34.38537 | 139.41748 | 36236 ft | 496 kts | 66° |
| 2026-04-20 07:01 | 34.39851 | 139.45582 | 35896 ft | 491 kts | 66° |
| 2026-04-20 07:02 | 34.41154 | 139.49386 | 35900 ft | 494 kts | 66° |
| 2026-04-20 07:02 | 34.43812 | 139.57153 | 35701 ft | 497 kts | 66° |
| 2026-04-20 07:02 | 34.45126 | 139.61005 | 35319 ft | 494 kts | 66° |
| 2026-04-20 07:03 | 34.46431 | 139.64839 | 34812 ft | 491 kts | 66° |
| 2026-04-20 07:03 | 34.47838 | 139.68585 | 34246 ft | 486 kts | 58° |
| 2026-04-20 07:03 | 34.49751 | 139.71915 | 33592 ft | 478 kts | 46° |
| 2026-04-20 07:03 | 34.52136 | 139.74684 | 32803 ft | 473 kts | 34° |
| 2026-04-20 07:04 | 34.54878 | 139.76870 | 31877 ft | 473 kts | 26° |
| 2026-04-20 07:04 | 34.57759 | 139.78793 | 31081 ft | 473 kts | 25° |
| 2026-04-20 07:04 | 34.60647 | 139.80707 | 30335 ft | 472 kts | 27° |
| 2026-04-20 07:04 | 34.63491 | 139.82668 | 29828 ft | 465 kts | 28° |
| 2026-04-20 07:05 | 34.66232 | 139.84628 | 29643 ft | 450 kts | 28° |
| 2026-04-20 07:05 | 34.68866 | 139.86569 | 29466 ft | 436 kts | 32° |
| 2026-04-20 07:05 | 34.71137 | 139.88933 | 29318 ft | 425 kts | 47° |
| 2026-04-20 07:05 | 34.72774 | 139.91850 | 29177 ft | 413 kts | 64° |
| 2026-04-20 07:06 | 34.73647 | 139.95099 | 29026 ft | 399 kts | 82° |
| 2026-04-20 07:06 | 34.73678 | 139.98392 | 28894 ft | 383 kts | 102° |
| 2026-04-20 07:06 | 34.72868 | 140.01373 | 28759 ft | 364 kts | 123° |
| 2026-04-20 07:06 | 34.71344 | 140.03692 | 28603 ft | 343 kts | 144° |
| 2026-04-20 07:07 | 34.69341 | 140.05121 | 28182 ft | 330 kts | 167° |
| 2026-04-20 07:07 | 34.67150 | 140.05501 | 27702 ft | 318 kts | 189° |
| 2026-04-20 07:07 | 34.65066 | 140.04808 | 27232 ft | 308 kts | 212° |
| 2026-04-20 07:07 | 34.63378 | 140.03271 | 26815 ft | 302 kts | 224° |
| 2026-04-20 07:08 | 34.61819 | 140.01582 | 26432 ft | 299 kts | 224° |
| 2026-04-20 07:08 | 34.60266 | 139.99912 | 26054 ft | 297 kts | 223° |
| 2026-04-20 07:08 | 34.58622 | 139.98405 | 25707 ft | 295 kts | 216° |
| 2026-04-20 07:08 | 34.56893 | 139.97081 | 25464 ft | 294 kts | 214° |
| 2026-04-20 07:09 | 34.55131 | 139.95805 | 25223 ft | 296 kts | 214° |
| 2026-04-20 07:09 | 34.53358 | 139.94527 | 24986 ft | 296 kts | 214° |
| 2026-04-20 07:09 | 34.51603 | 139.93251 | 24752 ft | 293 kts | 214° |
| 2026-04-20 07:09 | 34.49866 | 139.91976 | 24516 ft | 291 kts | 214° |
| 2026-04-20 07:10 | 34.48142 | 139.90700 | 24286 ft | 290 kts | 215° |
| 2026-04-20 07:10 | 34.46581 | 139.89192 | 24056 ft | 285 kts | 230° |
| 2026-04-20 07:10 | 34.45423 | 139.87275 | 23828 ft | 281 kts | 244° |
| 2026-04-20 07:10 | 34.44755 | 139.85067 | 23598 ft | 279 kts | 259° |
| 2026-04-20 07:11 | 34.44629 | 139.82732 | 23332 ft | 279 kts | 275° |
| 2026-04-20 07:11 | 34.45050 | 139.80441 | 23064 ft | 280 kts | 290° |
| 2026-04-20 07:11 | 34.45989 | 139.78374 | 22787 ft | 282 kts | 305° |
| 2026-04-20 07:11 | 34.47381 | 139.76696 | 22532 ft | 285 kts | 321° |
| 2026-04-20 07:12 | 34.49138 | 139.75545 | 22281 ft | 291 kts | 337° |
| 2026-04-20 07:12 | 34.51131 | 139.75050 | 22019 ft | 296 kts | 354° |
| 2026-04-20 07:12 | 34.53185 | 139.75291 | 21762 ft | 299 kts | 12° |
| 2026-04-20 07:12 | 34.55105 | 139.76272 | 21508 ft | 303 kts | 29° |
| 2026-04-20 07:13 | 34.56896 | 139.77627 | 21257 ft | 303 kts | 30° |
| 2026-04-20 07:13 | 34.58654 | 139.78958 | 21004 ft | 301 kts | 29° |
| 2026-04-20 07:13 | 34.60425 | 139.80289 | 20757 ft | 298 kts | 29° |
| 2026-04-20 07:13 | 34.62190 | 139.81609 | 20506 ft | 298 kts | 29° |
| 2026-04-20 07:14 | 34.63953 | 139.82923 | 20267 ft | 297 kts | 29° |
| 2026-04-20 07:14 | 34.65709 | 139.84229 | 20024 ft | 294 kts | 29° |
| 2026-04-20 07:14 | 34.67450 | 139.85525 | 19784 ft | 293 kts | 29° |
| 2026-04-20 07:14 | 34.69005 | 139.87112 | 19540 ft | 294 kts | 53° |
| 2026-04-20 07:15 | 34.69871 | 139.89346 | 19306 ft | 295 kts | 80° |
| 2026-04-20 07:15 | 34.69863 | 139.91804 | 19077 ft | 291 kts | 107° |
| 2026-04-20 07:15 | 34.68997 | 139.93966 | 18846 ft | 283 kts | 134° |
| 2026-04-20 07:15 | 34.67508 | 139.95440 | 18618 ft | 274 kts | 159° |
| 2026-04-20 07:16 | 34.65718 | 139.96047 | 18387 ft | 265 kts | 181° |
| 2026-04-20 07:16 | 34.63925 | 139.95770 | 18134 ft | 258 kts | 203° |
| 2026-04-20 07:16 | 34.62356 | 139.94760 | 17868 ft | 255 kts | 214° |
| 2026-04-20 07:16 | 34.60854 | 139.93619 | 17603 ft | 254 kts | 214° |
| 2026-04-20 07:17 | 34.59350 | 139.92490 | 17355 ft | 254 kts | 213° |
| 2026-04-20 07:17 | 34.57871 | 139.91388 | 17092 ft | 252 kts | 213° |
| 2026-04-20 07:17 | 34.56377 | 139.90279 | 16835 ft | 251 kts | 213° |
| 2026-04-20 07:17 | 34.54890 | 139.89177 | 16581 ft | 249 kts | 213° |
| 2026-04-20 07:18 | 34.53421 | 139.88089 | 16330 ft | 247 kts | 213° |
| 2026-04-20 07:18 | 34.51999 | 139.86926 | 16068 ft | 245 kts | 224° |
| 2026-04-20 07:18 | 34.50943 | 139.85330 | 15737 ft | 243 kts | 242° |
| 2026-04-20 07:18 | 34.50425 | 139.83392 | 15385 ft | 244 kts | 262° |
| 2026-04-20 07:19 | 34.50529 | 139.81338 | 15002 ft | 247 kts | 283° |
| 2026-04-20 07:19 | 34.51263 | 139.79435 | 14557 ft | 255 kts | 304° |
| 2026-04-20 07:19 | 34.52583 | 139.77975 | 14198 ft | 260 kts | 327° |
| 2026-04-20 07:19 | 34.54285 | 139.77224 | 13860 ft | 264 kts | 350° |
| 2026-04-20 07:20 | 34.56134 | 139.77337 | 13408 ft | 269 kts | 16° |
| 2026-04-20 07:20 | 34.57804 | 139.78301 | 13094 ft | 266 kts | 32° |
| 2026-04-20 07:20 | 34.59358 | 139.79479 | 12803 ft | 262 kts | 32° |
| 2026-04-20 07:20 | 34.60912 | 139.80653 | 12370 ft | 265 kts | 32° |
| 2026-04-20 07:21 | 34.62484 | 139.81832 | 12029 ft | 264 kts | 32° |
| 2026-04-20 07:21 | 34.64011 | 139.82970 | 11773 ft | 260 kts | 32° |
| 2026-04-20 07:21 | 34.65566 | 139.84126 | 11389 ft | 262 kts | 32° |
| 2026-04-20 07:21 | 34.67110 | 139.85273 | 11121 ft | 259 kts | 33° |
| 2026-04-20 07:22 | 34.68547 | 139.86546 | 10849 ft | 253 kts | 51° |
| 2026-04-20 07:22 | 34.69357 | 139.88389 | 10475 ft | 246 kts | 82° |
| 2026-04-20 07:22 | 34.69321 | 139.90409 | 10155 ft | 237 kts | 111° |
| 2026-04-20 07:22 | 34.68555 | 139.92115 | 9857 ft | 227 kts | 137° |
| 2026-04-20 07:23 | 34.67304 | 139.93203 | 9504 ft | 222 kts | 160° |
| 2026-04-20 07:23 | 34.65796 | 139.93519 | 9164 ft | 220 kts | 184° |
| 2026-04-20 07:23 | 34.64326 | 139.93021 | 8909 ft | 227 kts | 208° |
| 2026-04-20 07:23 | 34.63140 | 139.91756 | 8658 ft | 229 kts | 236° |
| 2026-04-20 07:24 | 34.62567 | 139.89956 | 8398 ft | 233 kts | 260° |
| 2026-04-20 07:24 | 34.62699 | 139.87992 | 8147 ft | 238 kts | 287° |
| 2026-04-20 07:24 | 34.63586 | 139.86278 | 7906 ft | 247 kts | 316° |
| 2026-04-20 07:24 | 34.64533 | 139.85496 | 7743 ft | 250 kts | 337° |
| 2026-04-20 07:25 | 34.66202 | 139.85126 | 7561 ft | 243 kts | 8° |
| 2026-04-20 07:25 | 34.68212 | 139.86108 | 7257 ft | 236 kts | 44° |
| 2026-04-20 07:25 | 34.69716 | 139.87264 | 7157 ft | 280 kts | 22° |
| 2026-04-20 07:25 | 34.71676 | 139.87626 | 7050 ft | 290 kts | 0° |
| 2026-04-20 07:26 | 34.73689 | 139.87452 | 6932 ft | 290 kts | 356° |
| 2026-04-20 07:26 | 34.75054 | 139.87338 | 6848 ft | 292 kts | 358° |
| 2026-04-20 07:26 | 34.77080 | 139.87309 | 6720 ft | 290 kts | 2° |
| 2026-04-20 07:26 | 34.79059 | 139.87432 | 6611 ft | 288 kts | 6° |
| 2026-04-20 07:27 | 34.81056 | 139.87653 | 6485 ft | 288 kts | 7° |
| 2026-04-20 07:27 | 34.83055 | 139.87920 | 6366 ft | 290 kts | 8° |
| 2026-04-20 07:27 | 34.85058 | 139.88206 | 6227 ft | 288 kts | 8° |
| 2026-04-20 07:27 | 34.87042 | 139.88493 | 6103 ft | 286 kts | 8° |
| 2026-04-20 07:28 | 34.89010 | 139.88775 | 6036 ft | 284 kts | 8° |
| 2026-04-20 07:28 | 34.90971 | 139.89053 | 6031 ft | 286 kts | 8° |
| 2026-04-20 07:28 | 34.92980 | 139.89334 | 6031 ft | 292 kts | 7° |
| 2026-04-20 07:28 | 34.95001 | 139.89346 | 6030 ft | 289 kts | 354° |
| 2026-04-20 07:29 | 34.96967 | 139.88852 | 6035 ft | 288 kts | 345° |
| 2026-04-20 07:29 | 34.98888 | 139.88224 | 6028 ft | 284 kts | 345° |
| 2026-04-20 07:29 | 35.00812 | 139.87611 | 6031 ft | 288 kts | 345° |
| 2026-04-20 07:29 | 35.02762 | 139.86994 | 6030 ft | 288 kts | 346° |
| 2026-04-20 07:30 | 35.04687 | 139.86388 | 6029 ft | 285 kts | 345° |
| 2026-04-20 07:30 | 35.06607 | 139.85782 | 6028 ft | 285 kts | 345° |
| 2026-04-20 07:30 | 35.08519 | 139.85179 | 6029 ft | 284 kts | 345° |
| 2026-04-20 07:30 | 35.10466 | 139.84562 | 6031 ft | 292 kts | 346° |
| 2026-04-20 07:31 | 35.12411 | 139.83946 | 6022 ft | 287 kts | 345° |
| 2026-04-20 07:31 | 35.14343 | 139.83333 | 6025 ft | 286 kts | 345° |
| 2026-04-20 07:31 | 35.16246 | 139.82729 | 6025 ft | 286 kts | 345° |
| 2026-04-20 07:31 | 35.18175 | 139.82118 | 6026 ft | 288 kts | 345° |
| 2026-04-20 07:32 | 35.20113 | 139.81503 | 6022 ft | 287 kts | 345° |
| 2026-04-20 07:32 | 35.22057 | 139.80886 | 5965 ft | 290 kts | 345° |
| 2026-04-20 07:32 | 35.24002 | 139.80269 | 5833 ft | 288 kts | 345° |
| 2026-04-20 07:32 | 35.25937 | 139.79654 | 5703 ft | 287 kts | 345° |
| 2026-04-20 07:33 | 35.27869 | 139.79040 | 5579 ft | 286 kts | 345° |
| 2026-04-20 07:33 | 35.29770 | 139.78438 | 5452 ft | 280 kts | 346° |
| 2026-04-20 07:33 | 35.31680 | 139.78357 | 5365 ft | 272 kts | 13° |
| 2026-04-20 07:33 | 35.33349 | 139.79287 | 5273 ft | 259 kts | 37° |
| 2026-04-20 07:34 | 35.34752 | 139.80638 | 5010 ft | 255 kts | 43° |
| 2026-04-20 07:34 | 35.36072 | 139.82057 | 4817 ft | 249 kts | 43° |
| 2026-04-20 07:34 | 35.37360 | 139.83432 | 4673 ft | 242 kts | 42° |
| 2026-04-20 07:35 | 35.39964 | 139.86096 | 4423 ft | 244 kts | 40° |
| 2026-04-20 07:35 | 35.41283 | 139.87408 | 4297 ft | 246 kts | 40° |
| 2026-04-20 07:35 | 35.42599 | 139.88709 | 4166 ft | 241 kts | 41° |
| 2026-04-20 07:35 | 35.43884 | 139.90003 | 4053 ft | 243 kts | 46° |
| 2026-04-20 07:36 | 35.45076 | 139.91460 | 4001 ft | 240 kts | 47° |
| 2026-04-20 07:36 | 35.46259 | 139.92911 | 4005 ft | 243 kts | 47° |
| 2026-04-20 07:36 | 35.47453 | 139.94370 | 4002 ft | 241 kts | 46° |
| 2026-04-20 07:36 | 35.48642 | 139.95818 | 4004 ft | 241 kts | 47° |
| 2026-04-20 07:37 | 35.49837 | 139.97276 | 4007 ft | 242 kts | 47° |
| 2026-04-20 07:37 | 35.51037 | 139.98740 | 4007 ft | 245 kts | 47° |
| 2026-04-20 07:37 | 35.52248 | 140.00206 | 4021 ft | 243 kts | 44° |
| 2026-04-20 07:37 | 35.53735 | 140.01164 | 4024 ft | 245 kts | 12° |
| 2026-04-20 07:38 | 35.55411 | 140.01077 | 4026 ft | 243 kts | 340° |
| 2026-04-20 07:38 | 35.56820 | 139.99955 | 4031 ft | 244 kts | 309° |
| 2026-04-20 07:38 | 35.57753 | 139.98230 | 4027 ft | 243 kts | 298° |
| 2026-04-20 07:38 | 35.58610 | 139.96457 | 4023 ft | 240 kts | 296° |
| 2026-04-20 07:39 | 35.59477 | 139.94688 | 4025 ft | 243 kts | 299° |
| 2026-04-20 07:39 | 35.60380 | 139.92983 | 4025 ft | 240 kts | 301° |
| 2026-04-20 07:39 | 35.61341 | 139.91286 | 4029 ft | 244 kts | 302° |
| 2026-04-20 07:39 | 35.62326 | 139.89608 | 4027 ft | 241 kts | 303° |
| 2026-04-20 07:40 | 35.63316 | 139.87945 | 4030 ft | 241 kts | 304° |
| 2026-04-20 07:40 | 35.64309 | 139.86286 | 4026 ft | 242 kts | 303° |
| 2026-04-20 07:40 | 35.65316 | 139.84606 | 4027 ft | 244 kts | 303° |
| 2026-04-20 07:40 | 35.66311 | 139.82939 | 4025 ft | 241 kts | 303° |
| 2026-04-20 07:41 | 35.67419 | 139.81372 | 4025 ft | 249 kts | 322° |
| 2026-04-20 07:41 | 35.68943 | 139.80336 | 4025 ft | 249 kts | 332° |
| 2026-04-20 07:41 | 35.70489 | 139.79391 | 4026 ft | 246 kts | 332° |
| 2026-04-20 07:41 | 35.72024 | 139.78454 | 4028 ft | 248 kts | 332° |
| 2026-04-20 07:42 | 35.73577 | 139.77520 | 4028 ft | 247 kts | 332° |
| 2026-04-20 07:42 | 35.75064 | 139.76495 | 4031 ft | 245 kts | 323° |
| 2026-04-20 07:42 | 35.76315 | 139.75087 | 4034 ft | 246 kts | 310° |
| 2026-04-20 07:42 | 35.77569 | 139.73650 | 4033 ft | 245 kts | 316° |
| 2026-04-20 07:43 | 35.78874 | 139.72273 | 4040 ft | 248 kts | 317° |
| 2026-04-20 07:43 | 35.80182 | 139.70930 | 4040 ft | 245 kts | 321° |
| 2026-04-20 07:43 | 35.81592 | 139.69748 | 4039 ft | 248 kts | 329° |
| 2026-04-20 07:43 | 35.83149 | 139.68768 | 4040 ft | 252 kts | 332° |
| 2026-04-20 07:44 | 35.84718 | 139.67801 | 4023 ft | 251 kts | 332° |
| 2026-04-20 07:44 | 35.86271 | 139.66841 | 4056 ft | 249 kts | 332° |
| 2026-04-20 07:44 | 35.87674 | 139.65978 | 4054 ft | 251 kts | 332° |
| 2026-04-20 07:44 | 35.89231 | 139.64963 | 4053 ft | 253 kts | 325° |
| 2026-04-20 07:45 | 35.90418 | 139.63434 | 4056 ft | 246 kts | 294° |
| 2026-04-20 07:45 | 35.90813 | 139.61473 | 4052 ft | 235 kts | 262° |
| 2026-04-20 07:45 | 35.90338 | 139.59611 | 4061 ft | 229 kts | 231° |
| 2026-04-20 07:45 | 35.89136 | 139.58357 | 4057 ft | 223 kts | 200° |
| 2026-04-20 07:46 | 35.87693 | 139.58127 | 4062 ft | 203 kts | 171° |
| 2026-04-20 07:46 | 35.86386 | 139.58608 | 4054 ft | 190 kts | 158° |
| 2026-04-20 07:46 | 35.85245 | 139.59296 | 4030 ft | 174 kts | 154° |
| 2026-04-20 07:46 | 35.84230 | 139.59976 | 4015 ft | 158 kts | 153° |
| 2026-04-20 07:47 | 35.83313 | 139.60588 | 4012 ft | 142 kts | 154° |
| 2026-04-20 07:47 | 35.82473 | 139.61118 | 4003 ft | 129 kts | 159° |
| 2026-04-20 07:47 | 35.81596 | 139.61446 | 4013 ft | 135 kts | 166° |
| 2026-04-20 07:47 | 35.80718 | 139.61740 | 4004 ft | 127 kts | 163° |
| 2026-04-20 07:48 | 35.79860 | 139.62164 | 4012 ft | 136 kts | 156° |
| 2026-04-20 07:48 | 35.79048 | 139.62694 | 4005 ft | 132 kts | 153° |
| 2026-04-20 07:48 | 35.78255 | 139.63258 | 4005 ft | 126 kts | 153° |
| 2026-04-20 07:48 | 35.77524 | 139.63781 | 4007 ft | 122 kts | 153° |
| 2026-04-20 07:49 | 35.76767 | 139.64317 | 4012 ft | 124 kts | 153° |
| 2026-04-20 07:49 | 35.76028 | 139.64845 | 4011 ft | 124 kts | 153° |
| 2026-04-20 07:49 | 35.75277 | 139.65380 | 4010 ft | 125 kts | 152° |
| 2026-04-20 07:49 | 35.74528 | 139.65913 | 3966 ft | 125 kts | 152° |
| 2026-04-20 07:50 | 35.73773 | 139.66450 | 3860 ft | 126 kts | 152° |
| 2026-04-20 07:50 | 35.73028 | 139.66982 | 3710 ft | 121 kts | 153° |
| 2026-04-20 07:50 | 35.72290 | 139.67506 | 3558 ft | 124 kts | 153° |
| 2026-04-20 07:50 | 35.71570 | 139.68019 | 3418 ft | 119 kts | 153° |
| 2026-04-20 07:51 | 35.70841 | 139.68537 | 3259 ft | 123 kts | 152° |
| 2026-04-20 07:51 | 35.70107 | 139.69059 | 3124 ft | 120 kts | 153° |
| 2026-04-20 07:51 | 35.69382 | 139.69575 | 2965 ft | 120 kts | 152° |
| 2026-04-20 07:51 | 35.68662 | 139.70087 | 2813 ft | 120 kts | 152° |
| 2026-04-20 07:52 | 35.67930 | 139.70607 | 2651 ft | 124 kts | 153° |
| 2026-04-20 07:52 | 35.67194 | 139.71130 | 2486 ft | 121 kts | 153° |
| 2026-04-20 07:52 | 35.66434 | 139.71670 | 2313 ft | 123 kts | 153° |
| 2026-04-20 07:52 | 35.65710 | 139.72185 | 2154 ft | 120 kts | 153° |
| 2026-04-20 07:53 | 35.65003 | 139.72688 | 1996 ft | 118 kts | 153° |
| 2026-04-20 07:53 | 35.64283 | 139.73197 | 1846 ft | 118 kts | 153° |
| 2026-04-20 07:53 | 35.63582 | 139.73697 | 1691 ft | 116 kts | 153° |
| 2026-04-20 07:53 | 35.62877 | 139.74196 | 1526 ft | 115 kts | 154° |
| 2026-04-20 07:54 | 35.62188 | 139.74687 | 1372 ft | 115 kts | 154° |
| 2026-04-20 07:54 | 35.61484 | 139.75184 | 1224 ft | 119 kts | 150° |
| 2026-04-20 07:54 | 35.60777 | 139.75687 | 1061 ft | 117 kts | 150° |
| 2026-04-20 07:54 | 35.60080 | 139.76182 | 918 ft | 114 kts | 149° |
| 2026-04-20 07:55 | 35.59392 | 139.76669 | 767 ft | 112 kts | 150° |
| 2026-04-20 07:55 | 35.58706 | 139.77157 | 630 ft | 121 kts | 150° |
| 2026-04-20 07:55 | 35.57972 | 139.77677 | 458 ft | 118 kts | 150° |
| 2026-04-20 07:55 | 35.57261 | 139.78182 | 303 ft | 117 kts | 152° |
| 2026-04-20 07:56 | 35.56552 | 139.78686 | 146 ft | 118 kts | 152° |
| 2026-04-20 07:56 | 35.55858 | 139.79182 | 40 ft | 108 kts | 152° |
| 2026-04-20 07:56 | 35.55300 | 139.79569 | 26 ft | 66 kts | 149° |
| 2026-04-20 07:56 | 35.54962 | 139.79741 | 25 ft | 49 kts | 173° |
| 2026-04-20 07:57 | 35.54842 | 139.79735 | 24 ft | 0 kts | 195° |
| 2026-04-20 07:57 | 35.54839 | 139.79731 | 24 ft | 0 kts | 219° |
| 2026-04-20 07:57 | 35.54834 | 139.79719 | 25 ft | 0 kts | 241° |
| 2026-04-20 07:57 | 35.54814 | 139.79655 | 25 ft | 16 kts | 247° |
| 2026-04-20 07:58 | 35.54750 | 139.79522 | 24 ft | 19 kts | 239° |
| 2026-04-20 07:58 | 35.54772 | 139.79415 | 26 ft | 14 kts | 298° |
| 2026-04-20 07:58 | 35.54827 | 139.79338 | 28 ft | 0 kts | 326° |